sensor_id;sensor_type;location;lat;lon;timestamp;temperature;humidity
30250;DHT22;17064;47.974;13.826;2023-02-15T04:01:43;-1.90;99.90
30250;DHT22;17064;47.974;13.826;2023-02-15T04:07:03;-2.00;99.90
30250;DHT22;17064;47.974;13.826;2023-02-15T04:12:21;-2.00;99.90
30250;DHT22;17064;47.974;13.826;2023-02-15T04:22:47;-2.00;99.90
30250;DHT22;17064;47.974;13.826;2023-02-15T04:28:06;-2.00;99.90
30250;DHT22;17064;47.974;13.826;2023-02-15T04:33:08;-2.00;99.90
30250;DHT22;17064;47.974;13.826;2023-02-15T04:38:08;-2.00;99.90
30250;DHT22;17064;47.974;13.826;2023-02-15T04:43:10;-2.00;99.90
30250;DHT22;17064;47.974;13.826;2023-02-15T04:48:11;-2.10;99.90
30250;DHT22;17064;47.974;13.826;2023-02-15T04:53:11;-2.10;99.90
30250;DHT22;17064;47.974;13.826;2023-02-15T04:58:12;-2.10;99.90
30250;DHT22;17064;47.974;13.826;2023-02-15T05:03:13;-2.10;99.90
30250;DHT22;17064;47.974;13.826;2023-02-15T05:08:14;-2.10;99.90
30250;DHT22;17064;47.974;13.826;2023-02-15T05:13:15;-2.10;99.90
30250;DHT22;17064;47.974;13.826;2023-02-15T05:18:16;-2.10;99.90
30250;DHT22;17064;47.974;13.826;2023-02-15T05:23:17;-2.10;99.90
30250;DHT22;17064;47.974;13.826;2023-02-15T05:28:18;-2.10;99.90
30250;DHT22;17064;47.974;13.826;2023-02-15T05:33:21;-2.20;99.90
30250;DHT22;17064;47.974;13.826;2023-02-15T05:38:22;-2.10;99.90
30250;DHT22;17064;47.974;13.826;2023-02-15T05:43:26;-2.10;99.90
30250;DHT22;17064;47.974;13.826;2023-02-15T05:48:27;-2.10;99.90
30250;DHT22;17064;47.974;13.826;2023-02-15T05:53:30;-2.00;99.90
30250;DHT22;17064;47.974;13.826;2023-02-15T05:58:34;-2.10;99.90
30250;DHT22;17064;47.974;13.826;2023-02-15T06:03:35;-2.00;99.90
30250;DHT22;17064;47.974;13.826;2023-02-15T06:08:36;-2.10;99.90
30250;DHT22;17064;47.974;13.826;2023-02-15T06:13:37;-2.00;99.90
30250;DHT22;17064;47.974;13.826;2023-02-15T06:18:38;-2.00;99.90
30250;DHT22;17064;47.974;13.826;2023-02-15T06:23:39;-2.00;99.90
30250;DHT22;17064;47.974;13.826;2023-02-15T06:28:40;-2.10;99.90
30250;DHT22;17064;47.974;13.826;2023-02-15T06:33:41;-2.10;99.90
30250;DHT22;17064;47.974;13.826;2023-02-15T06:38:42;-2.10;99.90
30250;DHT22;17064;47.974;13.826;2023-02-15T06:43:42;-2.10;99.90
30250;DHT22;17064;47.974;13.826;2023-02-15T06:48:43;-2.20;99.90
30250;DHT22;17064;47.974;13.826;2023-02-15T06:53:44;-2.20;99.90
30250;DHT22;17064;47.974;13.826;2023-02-15T06:58:45;-2.10;99.90
30250;DHT22;17064;47.974;13.826;2023-02-15T07:03:46;-2.10;99.90
30250;DHT22;17064;47.974;13.826;2023-02-15T07:08:47;-2.10;99.90
30250;DHT22;17064;47.974;13.826;2023-02-15T07:13:47;-2.10;99.90
30250;DHT22;17064;47.974;13.826;2023-02-15T07:18:48;-2.00;99.90
30250;DHT22;17064;47.974;13.826;2023-02-15T07:23:49;-2.00;99.90
30250;DHT22;17064;47.974;13.826;2023-02-15T07:28:50;-2.00;99.90
30250;DHT22;17064;47.974;13.826;2023-02-15T07:33:50;-2.00;99.90
30250;DHT22;17064;47.974;13.826;2023-02-15T07:38:51;-1.90;99.90
30250;DHT22;17064;47.974;13.826;2023-02-15T07:43:52;-1.90;99.90
30250;DHT22;17064;47.974;13.826;2023-02-15T07:48:53;-1.90;99.90
30250;DHT22;17064;47.974;13.826;2023-02-15T07:53:53;-1.90;99.90
30250;DHT22;17064;47.974;13.826;2023-02-15T07:58:54;-1.80;99.90
30250;DHT22;17064;47.974;13.826;2023-02-15T08:03:58;-1.80;99.90
30250;DHT22;17064;47.974;13.826;2023-02-15T08:08:58;-1.80;99.90
30250;DHT22;17064;47.974;13.826;2023-02-15T08:14:11;-1.80;99.90
30250;DHT22;17064;47.974;13.826;2023-02-15T08:19:21;-1.70;99.90
30250;DHT22;17064;47.974;13.826;2023-02-15T08:24:24;-1.70;99.90
30250;DHT22;17064;47.974;13.826;2023-02-15T08:29:26;-1.70;99.90
30250;DHT22;17064;47.974;13.826;2023-02-15T08:34:29;-1.70;99.90
30250;DHT22;17064;47.974;13.826;2023-02-15T08:39:30;-1.70;99.90
30250;DHT22;17064;47.974;13.826;2023-02-15T08:44:30;-1.60;99.90
30250;DHT22;17064;47.974;13.826;2023-02-15T08:49:31;-1.50;99.90
30250;DHT22;17064;47.974;13.826;2023-02-15T08:54:32;-1.40;99.90
30250;DHT22;17064;47.974;13.826;2023-02-15T08:59:33;-1.50;99.90
30250;DHT22;17064;47.974;13.826;2023-02-15T09:04:34;-1.30;99.90
30250;DHT22;17064;47.974;13.826;2023-02-15T09:09:34;-1.20;99.90
30250;DHT22;17064;47.974;13.826;2023-02-15T09:14:35;-1.10;99.90
30250;DHT22;17064;47.974;13.826;2023-02-15T09:19:36;-1.00;99.90
30250;DHT22;17064;47.974;13.826;2023-02-15T09:24:36;-0.90;99.90
30250;DHT22;17064;47.974;13.826;2023-02-15T09:29:37;-0.80;99.90
30250;DHT22;17064;47.974;13.826;2023-02-15T09:34:38;-0.70;99.90
30250;DHT22;17064;47.974;13.826;2023-02-15T09:39:42;-0.60;99.90
30250;DHT22;17064;47.974;13.826;2023-02-15T10:16:33;0.10;99.90
30250;DHT22;17064;47.974;13.826;2023-02-15T10:26:48;0.20;99.90
30250;DHT22;17064;47.974;13.826;2023-02-15T10:31:53;0.30;99.90
30250;DHT22;17064;47.974;13.826;2023-02-15T10:53:24;0.70;99.90
30250;DHT22;17064;47.974;13.826;2023-02-15T10:58:44;0.70;99.90
30250;DHT22;17064;47.974;13.826;2023-02-15T11:04:16;0.60;99.90
30250;DHT22;17064;47.974;13.826;2023-02-15T11:09:23;0.50;99.90
30250;DHT22;17064;47.974;13.826;2023-02-15T11:14:34;0.40;99.90
30250;DHT22;17064;47.974;13.826;2023-02-15T11:19:44;0.40;99.90
30250;DHT22;17064;47.974;13.826;2023-02-15T11:24:49;0.40;99.90
30250;DHT22;17064;47.974;13.826;2023-02-15T11:40:39;1.00;99.90
30250;DHT22;17064;47.974;13.826;2023-02-15T11:45:44;1.10;99.90
30250;DHT22;17064;47.974;13.826;2023-02-15T11:50:46;1.20;99.90
30250;DHT22;17064;47.974;13.826;2023-02-15T11:55:48;1.30;99.90
30250;DHT22;17064;47.974;13.826;2023-02-15T12:01:18;1.40;99.90
30250;DHT22;17064;47.974;13.826;2023-02-15T12:06:27;1.50;99.90
30250;DHT22;17064;47.974;13.826;2023-02-15T12:11:39;1.50;99.90
30250;DHT22;17064;47.974;13.826;2023-02-15T12:16:51;1.60;99.90
30250;DHT22;17064;47.974;13.826;2023-02-15T12:21:53;1.60;99.90
30250;DHT22;17064;47.974;13.826;2023-02-15T12:27:04;1.70;99.90
30250;DHT22;17064;47.974;13.826;2023-02-15T12:32:11;1.70;99.90
30250;DHT22;17064;47.974;13.826;2023-02-15T12:37:23;1.80;99.90
30250;DHT22;17064;47.974;13.826;2023-02-15T12:42:25;1.70;99.90
30250;DHT22;17064;47.974;13.826;2023-02-15T12:47:28;1.60;99.90
30250;DHT22;17064;47.974;13.826;2023-02-15T12:52:29;1.50;99.90
30250;DHT22;17064;47.974;13.826;2023-02-15T12:57:32;1.50;99.90
30250;DHT22;17064;47.974;13.826;2023-02-15T13:02:41;1.60;99.90
30250;DHT22;17064;47.974;13.826;2023-02-15T13:07:46;1.70;99.90
30250;DHT22;17064;47.974;13.826;2023-02-15T13:12:49;1.70;99.90
30250;DHT22;17064;47.974;13.826;2023-02-15T13:17:56;1.60;99.90
30250;DHT22;17064;47.974;13.826;2023-02-15T13:23:01;1.60;99.90
30250;DHT22;17064;47.974;13.826;2023-02-15T13:28:05;1.60;99.90
30250;DHT22;17064;47.974;13.826;2023-02-15T13:33:31;1.60;99.90
30250;DHT22;17064;47.974;13.826;2023-02-15T13:38:48;1.70;99.90
30250;DHT22;17064;47.974;13.826;2023-02-15T13:54:47;1.60;99.90
30250;DHT22;17064;47.974;13.826;2023-02-15T14:10:50;1.40;99.90
30250;DHT22;17064;47.974;13.826;2023-02-15T14:16:36;1.30;99.90
30250;DHT22;17064;47.974;13.826;2023-02-15T14:31:57;1.10;99.90
30250;DHT22;17064;47.974;13.826;2023-02-15T14:36:59;1.10;99.90
30250;DHT22;17064;47.974;13.826;2023-02-15T14:47:36;1.10;99.90
30250;DHT22;17064;47.974;13.826;2023-02-15T14:58:19;0.90;99.90
30250;DHT22;17064;47.974;13.826;2023-02-15T15:03:23;0.80;99.90
30250;DHT22;17064;47.974;13.826;2023-02-15T15:08:37;0.80;99.90
30250;DHT22;17064;47.974;13.826;2023-02-15T15:13:52;0.70;99.90
30250;DHT22;17064;47.974;13.826;2023-02-15T15:18:53;0.70;99.90
30250;DHT22;17064;47.974;13.826;2023-02-15T15:23:54;0.60;99.90
30250;DHT22;17064;47.974;13.826;2023-02-15T15:28:58;0.40;99.90
30250;DHT22;17064;47.974;13.826;2023-02-15T15:34:24;0.30;99.90
30250;DHT22;17064;47.974;13.826;2023-02-15T15:45:23;0.20;99.90
30250;DHT22;17064;47.974;13.826;2023-02-15T15:50:28;0.10;99.90
30250;DHT22;17064;47.974;13.826;2023-02-15T15:55:31;0.00;99.90
30250;DHT22;17064;47.974;13.826;2023-02-15T16:05:38;-0.10;99.90
30250;DHT22;17064;47.974;13.826;2023-02-15T16:10:40;-0.20;99.90
30250;DHT22;17064;47.974;13.826;2023-02-15T16:15:46;-0.20;99.90
30250;DHT22;17064;47.974;13.826;2023-02-15T16:21:01;-0.30;99.90
30250;DHT22;17064;47.974;13.826;2023-02-15T16:31:14;-0.50;99.90
30250;DHT22;17064;47.974;13.826;2023-02-15T16:36:24;-0.60;99.90
30250;DHT22;17064;47.974;13.826;2023-02-15T16:41:28;-0.60;99.90
30250;DHT22;17064;47.974;13.826;2023-02-15T16:46:41;-0.60;99.90
30250;DHT22;17064;47.974;13.826;2023-02-15T16:51:44;-0.60;99.90
30250;DHT22;17064;47.974;13.826;2023-02-15T16:56:47;-0.70;99.90
30250;DHT22;17064;47.974;13.826;2023-02-15T17:01:49;-0.60;99.90
30250;DHT22;17064;47.974;13.826;2023-02-15T17:07:18;-0.70;99.90
30250;DHT22;17064;47.974;13.826;2023-02-15T17:12:44;-0.60;99.90
30250;DHT22;17064;47.974;13.826;2023-02-15T17:17:46;-0.60;99.90
30250;DHT22;17064;47.974;13.826;2023-02-15T17:22:47;-0.60;99.90
30250;DHT22;17064;47.974;13.826;2023-02-15T17:27:55;-0.70;99.90
30250;DHT22;17064;47.974;13.826;2023-02-15T17:33:00;-0.70;99.90
30250;DHT22;17064;47.974;13.826;2023-02-15T17:38:20;-0.80;99.90
30250;DHT22;17064;47.974;13.826;2023-02-15T17:43:22;-0.90;99.90
30250;DHT22;17064;47.974;13.826;2023-02-15T17:48:37;-0.90;99.90
30250;DHT22;17064;47.974;13.826;2023-02-15T17:53:40;-0.90;99.90
30250;DHT22;17064;47.974;13.826;2023-02-15T17:59:03;-0.90;99.90
30250;DHT22;17064;47.974;13.826;2023-02-15T18:04:12;-0.90;99.90
30250;DHT22;17064;47.974;13.826;2023-02-15T18:09:32;-0.90;99.90
30250;DHT22;17064;47.974;13.826;2023-02-15T18:14:54;-0.90;99.90
30250;DHT22;17064;47.974;13.826;2023-02-15T18:19:55;-0.90;99.90
30250;DHT22;17064;47.974;13.826;2023-02-15T18:24:56;-0.90;99.90
30250;DHT22;17064;47.974;13.826;2023-02-15T18:29:58;-0.90;99.90
30250;DHT22;17064;47.974;13.826;2023-02-15T18:35:00;-0.90;99.90
30250;DHT22;17064;47.974;13.826;2023-02-15T18:40:03;-0.90;99.90
30250;DHT22;17064;47.974;13.826;2023-02-15T18:45:18;-0.90;99.90
30250;DHT22;17064;47.974;13.826;2023-02-15T18:50:20;-1.00;99.90
30250;DHT22;17064;47.974;13.826;2023-02-15T18:55:24;-1.00;99.90
30250;DHT22;17064;47.974;13.826;2023-02-15T19:00:31;-1.00;99.90
30250;DHT22;17064;47.974;13.826;2023-02-15T19:05:33;-1.00;99.90
30250;DHT22;17064;47.974;13.826;2023-02-15T19:10:35;-1.10;99.90
30250;DHT22;17064;47.974;13.826;2023-02-15T19:15:36;-1.10;99.90
30250;DHT22;17064;47.974;13.826;2023-02-15T19:20:40;-1.10;99.90
30250;DHT22;17064;47.974;13.826;2023-02-15T19:25:42;-1.00;99.90
30250;DHT22;17064;47.974;13.826;2023-02-15T19:30:44;-1.20;99.90
30250;DHT22;17064;47.974;13.826;2023-02-15T19:35:47;-1.20;99.90
30250;DHT22;17064;47.974;13.826;2023-02-15T19:40:52;-1.20;99.90
30250;DHT22;17064;47.974;13.826;2023-02-15T19:45:55;-1.20;99.90
30250;DHT22;17064;47.974;13.826;2023-02-15T19:50:57;-1.10;99.90
30250;DHT22;17064;47.974;13.826;2023-02-15T19:55:59;-1.10;99.90
30250;DHT22;17064;47.974;13.826;2023-02-15T20:01:00;-1.10;99.90
30250;DHT22;17064;47.974;13.826;2023-02-15T20:06:03;-1.20;99.90
30250;DHT22;17064;47.974;13.826;2023-02-15T20:11:11;-1.20;99.90
30250;DHT22;17064;47.974;13.826;2023-02-15T20:16:13;-1.20;99.90
30250;DHT22;17064;47.974;13.826;2023-02-15T20:21:15;-1.20;99.90
30250;DHT22;17064;47.974;13.826;2023-02-15T20:26:16;-1.30;99.90
30250;DHT22;17064;47.974;13.826;2023-02-15T20:31:19;-1.30;99.90
30250;DHT22;17064;47.974;13.826;2023-02-15T20:36:23;-1.30;99.90
30250;DHT22;17064;47.974;13.826;2023-02-15T20:41:25;-1.30;99.90
30250;DHT22;17064;47.974;13.826;2023-02-15T20:46:35;-1.20;99.90
30250;DHT22;17064;47.974;13.826;2023-02-15T20:51:37;-1.20;99.90
30250;DHT22;17064;47.974;13.826;2023-02-15T20:56:40;-1.20;99.90
30250;DHT22;17064;47.974;13.826;2023-02-15T21:01:42;-1.20;99.90
30250;DHT22;17064;47.974;13.826;2023-02-15T21:06:45;-1.20;99.90
30250;DHT22;17064;47.974;13.826;2023-02-15T21:11:47;-1.20;99.90
30250;DHT22;17064;47.974;13.826;2023-02-15T21:16:51;-1.20;99.90
30250;DHT22;17064;47.974;13.826;2023-02-15T21:21:52;-1.20;99.90
30250;DHT22;17064;47.974;13.826;2023-02-15T21:26:55;-1.20;99.90
30250;DHT22;17064;47.974;13.826;2023-02-15T21:31:56;-1.20;99.90
30250;DHT22;17064;47.974;13.826;2023-02-15T21:37:02;-1.20;99.90
30250;DHT22;17064;47.974;13.826;2023-02-15T21:42:08;-1.30;99.90
30250;DHT22;17064;47.974;13.826;2023-02-15T21:47:30;-1.40;99.90
30250;DHT22;17064;47.974;13.826;2023-02-15T21:52:49;-1.40;99.90
30250;DHT22;17064;47.974;13.826;2023-02-15T21:57:51;-1.40;99.90
30250;DHT22;17064;47.974;13.826;2023-02-15T22:02:53;-1.40;99.90
30250;DHT22;17064;47.974;13.826;2023-02-15T22:07:56;-1.40;99.90
30250;DHT22;17064;47.974;13.826;2023-02-15T22:13:01;-1.40;99.90
30250;DHT22;17064;47.974;13.826;2023-02-15T22:18:03;-1.40;99.90
30250;DHT22;17064;47.974;13.826;2023-02-15T22:23:04;-1.40;99.90
30250;DHT22;17064;47.974;13.826;2023-02-15T22:28:04;-1.40;99.90
30250;DHT22;17064;47.974;13.826;2023-02-15T22:33:08;-1.40;99.90
30250;DHT22;17064;47.974;13.826;2023-02-15T22:38:10;-1.40;99.90
30250;DHT22;17064;47.974;13.826;2023-02-15T22:48:32;-1.50;99.90
30250;DHT22;17064;47.974;13.826;2023-02-15T22:53:32;-1.50;99.90
30250;DHT22;17064;47.974;13.826;2023-02-15T22:58:33;-1.50;99.90
30250;DHT22;17064;47.974;13.826;2023-02-15T23:03:34;-1.50;99.90
30250;DHT22;17064;47.974;13.826;2023-02-15T23:08:35;-1.60;99.90
30250;DHT22;17064;47.974;13.826;2023-02-15T23:13:36;-1.60;99.90
30250;DHT22;17064;47.974;13.826;2023-02-15T23:18:39;-1.60;99.90
30250;DHT22;17064;47.974;13.826;2023-02-15T23:23:41;-1.60;99.90
30250;DHT22;17064;47.974;13.826;2023-02-15T23:28:43;-1.60;99.90
30250;DHT22;17064;47.974;13.826;2023-02-15T23:33:44;-1.60;99.90
30250;DHT22;17064;47.974;13.826;2023-02-15T23:38:45;-1.70;99.90
30250;DHT22;17064;47.974;13.826;2023-02-15T23:44:04;-1.70;99.90
30250;DHT22;17064;47.974;13.826;2023-02-15T23:49:05;-1.70;99.90
30250;DHT22;17064;47.974;13.826;2023-02-15T23:54:15;-1.70;99.90
30250;DHT22;17064;47.974;13.826;2023-02-15T23:59:22;-1.80;99.90
